LHBP - BUDAPEST LISZT FERENC INTERNATIONAL AIRPORT

Compiled: 11:37:19 on 21/04/2018

Latest METAR/SPECI Reports

METAR LHBP 211130Z 23005KT 150V310 CAVOK 24/08 Q1020 NOSIG=

Previous reports

METAR LHBP 211100Z 22007KT 130V290 CAVOK 22/06 Q1021 NOSIG=
METAR LHBP 211030Z 23007KT 180V260 CAVOK 22/05 Q1021 NOSIG=
METAR LHBP 211000Z 22006KT 170V260 CAVOK 21/05 Q1021 NOSIG=
METAR LHBP 210930Z 23007KT 190V260 CAVOK 21/06 Q1022 NOSIG=

Latest TAF report

TAF LHBP 211115Z 2112/2212 22006KT CAVOK BECMG 2118/2120 VRB03KT BECMG 2209/2211 20005KT=

Valid WARNINGS

No valid warnings for LHBP